LEVX/VGO METAR and TAF weather

Enter ICAO airport designator
Station Type Date Time Source
LEVX METAR 2024/06/14 01:30 UTC NOAA

LEVX 140130Z 19008KT 140V220 0100 R19/0700N R01/0375N FG VV001 15/15 Q1018 NOSIG


Station Type Date Time Source
LEVX Decoded METAR 2024/06/14 01:30 UTC NOAA

Vigo / Peinador, Spain (LEVX) 42-13N 008-38W 255M
Jun 13, 2024 - 09:30 PM EDT / 2024.06.14 0130 UTC
Wind: from the S (190 degrees) at 9 MPH (8 KT) (direction variable):0
Visibility: less than 1 mile:0
Sky conditions: obscured
Weather: fog
Temperature: 59 F (15 C)
Dew Point: 59 F (15 C)
Relative Humidity: 100%
Pressure (altimeter): 30.06 in. Hg (1018 hPa)
ob: LEVX 140130Z 19008KT 140V220 0100 R19/0700N R01/0375N FG VV001 15/15 Q1018 NOSIG
cycle: 1

Station Type Date Time Source
LEVX TAF 2024/06/13 22:59 UTC NOAA